This is the latest recevied weather packets stored in our database for station/object SQ9PDE-13. If no packets are shown the sender has not sent any weather packets the latest 10 day(s).
| Time | Temp. | Humidity | Pressure | Rain* | Wind** | Luminosity | Snow |
|---|---|---|---|---|---|---|---|
| 1778071704 | 23.89° C | 45% | 1004.9 hPa | - | - | - | - |
| 1778071661 | 23.89° C | 45% | 1004.9 hPa | - | - | - | - |
| 1778071361 | 23.33° C | 44% | 1004.9 hPa | - | - | - | - |
| 1778071060 | 24.44° C | 44% | 1004.8 hPa | - | - | - | - |
| 1778070760 | 23.89° C | 45% | 1004.9 hPa | - | - | - | - |
| 1778070459 | 23.89° C | 45% | 1004.9 hPa | - | - | - | - |
| 1778070159 | 23.89° C | 45% | 1004.9 hPa | - | - | - | - |
| 1778069933 | 23.89° C | 44% | 1004.9 hPa | - | - | - | - |
| 1778069858 | 23.89° C | 44% | 1004.9 hPa | - | - | - | - |
| 1778069558 | 23.89° C | 45% | 1004.9 hPa | - | - | - | - |
| 1778069257 | 24.44° C | 43% | 1004.8 hPa | - | - | - | - |
| 1778068957 | 23.89° C | 45% | 1004.8 hPa | - | - | - | - |
| 1778068656 | 23.89° C | 45% | 1004.8 hPa | - | - | - | - |
| 1778068356 | 23.89° C | 45% | 1004.8 hPa | - | - | - | - |
| 1778068055 | 24.44° C | 45% | 1004.7 hPa | - | - | - | - |
| 1778067755 | 24.44° C | 44% | 1004.7 hPa | - | - | - | - |
| 1778067454 | 23.33° C | 47% | 1004.9 hPa | - | - | - | - |
| 1778067153 | 24.44° C | 45% | 1004.6 hPa | - | - | - | - |
| 1778066853 | 24.44° C | 45% | 1004.8 hPa | - | - | - | - |
| 1778066633 | 23.89° C | 47% | 1005 hPa | - | - | - | - |
| 1778066553 | 24.44° C | 46% | 1004.8 hPa | - | - | - | - |
| 1778066252 | 23.89° C | 47% | 1005 hPa | - | - | - | - |
| 1778065952 | 24.44° C | 46% | 1005 hPa | - | - | - | - |
| 1778065651 | 23.89° C | 48% | 1005 hPa | - | - | - | - |
| 1778065350 | 23.33° C | 47% | 1005.1 hPa | - | - | - | - |
* Rain since midnight (hover to see other rain measurements)
** Current wind speed in m/s (hover to see current wind gust speed)